createdAt,value
2023-02-23T00:00:29.844Z,3.38
2023-02-23T00:02:58.944Z,1.50
2023-02-23T00:05:26.547Z,2.08
2023-02-23T00:07:54.178Z,2.22
2023-02-23T00:10:21.346Z,3.78
2023-02-23T00:12:49.466Z,2.33
2023-02-23T00:15:15.794Z,2.88
2023-02-23T00:17:42.136Z,1.58
2023-02-23T00:20:11.597Z,2.80
2023-02-23T00:22:39.875Z,1.83
2023-02-23T00:25:09.087Z,1.52
2023-02-23T00:27:36.691Z,1.42
2023-02-23T00:30:03.296Z,0.80
2023-02-23T00:32:30.034Z,3.17
2023-02-23T00:34:58.695Z,3.70
2023-02-23T00:37:25.044Z,2.65
2023-02-23T00:39:52.829Z,1.48
2023-02-23T00:42:19.454Z,2.08
2023-02-23T00:44:47.612Z,1.80
2023-02-23T00:47:14.000Z,2.13
2023-02-23T00:49:40.314Z,2.33
2023-02-23T00:52:06.597Z,1.55
2023-02-23T00:54:32.955Z,1.45
2023-02-23T00:56:59.288Z,0.80
2023-02-23T00:59:25.626Z,1.27
2023-02-23T01:01:52.587Z,1.77
2023-02-23T01:04:18.947Z,1.20
2023-02-23T01:06:46.277Z,1.30
2023-02-23T01:09:14.487Z,1.17
2023-02-23T01:11:41.551Z,1.30
2023-02-23T01:14:08.557Z,1.38
2023-02-23T01:16:35.000Z,0.50
2023-02-23T01:19:03.468Z,0.85
2023-02-23T01:21:31.414Z,0.95
2023-02-23T01:23:58.076Z,0.73
2023-02-23T01:26:25.738Z,1.30
2023-02-23T01:28:56.498Z,0.77
2023-02-23T01:31:23.885Z,1.80
2023-02-23T01:33:54.456Z,0.77
2023-02-23T01:36:20.749Z,0.55
2023-02-23T01:38:47.355Z,0.38
2023-02-23T01:41:14.653Z,3.17
2023-02-23T01:43:55.552Z,3.20
2023-02-23T01:46:22.077Z,3.58
2023-02-23T01:48:48.705Z,5.15
2023-02-23T01:51:21.115Z,4.07
2023-02-23T01:53:51.398Z,3.90
2023-02-23T01:56:21.516Z,6.60
2023-02-23T01:58:51.833Z,8.48
2023-02-23T02:01:18.826Z,5.47
2023-02-23T02:03:48.380Z,4.53
2023-02-23T02:06:15.862Z,5.95
2023-02-23T02:08:46.288Z,5.20
2023-02-23T02:11:34.013Z,5.93
2023-02-23T02:14:02.627Z,6.30
2023-02-23T02:16:42.529Z,4.10
2023-02-23T02:19:18.745Z,5.18
2023-02-23T02:21:46.893Z,4.47
2023-02-23T02:24:13.228Z,4.47
2023-02-23T02:26:58.462Z,4.45
2023-02-23T02:29:32.881Z,5.38
2023-02-23T02:32:02.681Z,4.50
2023-02-23T02:34:29.030Z,4.13
2023-02-23T02:37:10.210Z,4.10
2023-02-23T02:39:36.724Z,3.67
2023-02-23T02:42:29.416Z,3.25
2023-02-23T02:45:20.327Z,5.90
2023-02-23T02:47:50.462Z,4.38
2023-02-23T02:50:31.351Z,4.45
2023-02-23T02:53:08.538Z,6.18
2023-02-23T02:55:37.642Z,5.15
2023-02-23T02:58:07.814Z,5.15
2023-02-23T03:01:00.818Z,4.30
2023-02-23T03:03:50.853Z,6.00
2023-02-23T03:06:37.232Z,9.88
2023-02-23T03:09:27.593Z,8.05
2023-02-23T03:12:24.966Z,6.40
2023-02-23T03:15:19.518Z,6.47
2023-02-23T03:18:05.861Z,8.60
2023-02-23T03:20:50.814Z,7.95
2023-02-23T03:23:35.756Z,6.20
2023-02-23T03:26:20.910Z,7.10
2023-02-23T03:29:26.331Z,6.25
2023-02-23T03:32:18.704Z,6.93
2023-02-23T03:35:16.185Z,6.65
2023-02-23T03:38:04.598Z,6.55
2023-02-23T03:40:54.136Z,7.45
2023-02-23T03:43:43.484Z,6.15
2023-02-23T03:46:30.076Z,8.45
2023-02-23T03:49:16.534Z,6.75
2023-02-23T03:52:02.102Z,7.07
2023-02-23T03:54:51.997Z,5.70
2023-02-23T03:57:39.274Z,5.68
2023-02-23T04:00:26.553Z,6.47
2023-02-23T04:03:12.463Z,6.97
2023-02-23T04:05:58.794Z,9.95
2023-02-23T04:08:44.724Z,9.00
2023-02-23T04:11:59.479Z,9.32
2023-02-23T04:14:28.784Z,9.02
2023-02-23T04:16:56.167Z,10.77
2023-02-23T04:19:22.469Z,10.15
2023-02-23T04:21:48.864Z,10.15
2023-02-23T04:24:15.555Z,10.07
2023-02-23T04:26:42.309Z,8.77
2023-02-23T04:29:08.725Z,9.02
2023-02-23T04:31:35.154Z,8.05
2023-02-23T04:34:01.613Z,8.75
2023-02-23T04:36:28.345Z,7.55
2023-02-23T04:38:54.710Z,5.78
2023-02-23T04:41:21.360Z,9.38
2023-02-23T04:43:47.661Z,7.78
2023-02-23T04:46:14.184Z,5.53
2023-02-23T04:48:40.590Z,5.45
2023-02-23T04:51:07.035Z,5.72
2023-02-23T04:53:33.338Z,6.22
2023-02-23T04:55:59.726Z,5.53
2023-02-23T04:58:26.423Z,6.13
2023-02-23T05:00:52.736Z,7.13
2023-02-23T05:03:19.099Z,7.60
2023-02-23T05:05:45.686Z,6.75
2023-02-23T05:08:12.006Z,6.25
2023-02-23T05:10:40.254Z,8.88
2023-02-23T05:13:06.820Z,7.93
2023-02-23T05:15:33.232Z,8.73
2023-02-23T05:17:59.580Z,8.25
2023-02-23T05:20:26.054Z,8.13
2023-02-23T05:22:52.331Z,6.97
2023-02-23T05:25:18.733Z,6.22
2023-02-23T05:27:45.017Z,5.53
2023-02-23T05:30:11.525Z,4.45
2023-02-23T05:32:37.876Z,3.13
2023-02-23T05:35:04.409Z,6.07
2023-02-23T05:37:30.843Z,3.85
2023-02-23T05:39:57.219Z,4.97
2023-02-23T05:42:23.572Z,3.47
2023-02-23T05:44:50.009Z,6.45
2023-02-23T05:47:16.310Z,6.30
2023-02-23T05:49:43.038Z,4.90
2023-02-23T05:52:09.374Z,4.20
2023-02-23T05:54:35.666Z,3.05
2023-02-23T05:57:02.030Z,2.55
2023-02-23T05:59:28.416Z,3.00
2023-02-23T06:01:54.743Z,2.13
2023-02-23T06:04:21.822Z,2.80
2023-02-23T06:06:48.171Z,2.20
2023-02-23T06:09:14.581Z,3.33
2023-02-23T06:11:40.954Z,4.03
2023-02-23T06:14:07.244Z,3.88
2023-02-23T06:16:33.711Z,2.55
2023-02-23T06:19:00.070Z,2.60
2023-02-23T06:21:26.415Z,2.60
2023-02-23T06:23:53.558Z,2.38
2023-02-23T06:26:20.597Z,3.88
2023-02-23T06:28:46.966Z,4.68
2023-02-23T06:31:13.318Z,4.53
2023-02-23T06:33:39.750Z,4.40
2023-02-23T06:36:06.215Z,3.38
2023-02-23T06:38:32.537Z,5.63
2023-02-23T06:44:20.695Z,9.23
2023-02-23T06:46:47.056Z,5.60
2023-02-23T06:49:16.172Z,4.45
2023-02-23T06:51:42.917Z,3.33
2023-02-23T06:54:09.248Z,4.55
2023-02-23T06:56:35.681Z,6.07
2023-02-23T06:59:02.007Z,8.40
2023-02-23T07:01:28.425Z,5.57
2023-02-23T07:03:54.891Z,4.80
2023-02-23T07:06:21.389Z,3.70
2023-02-23T07:08:47.851Z,3.20
2023-02-23T07:11:15.704Z,3.00
2023-02-23T07:13:45.132Z,2.47
2023-02-23T07:16:12.134Z,2.30
2023-02-23T07:18:38.534Z,1.70
2023-02-23T07:21:04.967Z,1.08
2023-02-23T07:23:31.351Z,1.10
2023-02-23T07:25:58.062Z,1.02
2023-02-23T07:28:25.818Z,0.80
2023-02-23T07:30:55.030Z,0.85
2023-02-23T07:33:21.409Z,1.77
2023-02-23T07:35:49.384Z,2.13
2023-02-23T07:38:15.834Z,1.00
2023-02-23T07:40:42.120Z,0.73
2023-02-23T07:43:09.977Z,0.90
2023-02-23T07:45:36.557Z,2.05
2023-02-23T07:48:02.921Z,3.30
2023-02-23T07:50:29.268Z,2.15
2023-02-23T07:52:55.729Z,1.63
2023-02-23T07:55:22.358Z,1.67
2023-02-23T07:57:48.825Z,0.82
2023-02-23T08:00:15.408Z,1.27
2023-02-23T08:02:41.787Z,1.85
2023-02-23T08:05:08.280Z,1.60
2023-02-23T08:07:34.612Z,1.75
2023-02-23T08:10:00.974Z,2.80
2023-02-23T08:12:27.484Z,2.00
2023-02-23T08:14:54.267Z,1.50
2023-02-23T08:17:20.633Z,2.13
2023-02-23T08:19:47.011Z,5.03
2023-02-23T08:22:13.344Z,3.40
2023-02-23T08:24:39.780Z,2.90
2023-02-23T08:27:06.244Z,4.13
2023-02-23T08:29:33.410Z,3.17
2023-02-23T08:32:01.548Z,3.35
2023-02-23T08:34:28.347Z,3.80
2023-02-23T08:36:55.032Z,3.83
2023-02-23T08:39:21.640Z,2.60
2023-02-23T08:41:47.957Z,2.20
2023-02-23T08:44:14.317Z,2.38
2023-02-23T08:46:40.592Z,1.52
2023-02-23T08:49:06.968Z,1.25
2023-02-23T08:51:34.905Z,1.20
2023-02-23T08:54:01.668Z,1.40
2023-02-23T08:56:28.378Z,1.48
2023-02-23T08:58:54.805Z,1.30
2023-02-23T09:01:22.222Z,2.10
2023-02-23T09:03:48.767Z,1.05
2023-02-23T09:06:17.470Z,1.05
2023-02-23T09:08:43.933Z,0.95
2023-02-23T09:11:10.377Z,1.92
2023-02-23T09:13:36.710Z,1.45
2023-02-23T09:16:03.976Z,0.70
2023-02-23T09:18:30.677Z,2.60
2023-02-23T09:20:57.020Z,1.60
2023-02-23T09:23:24.280Z,1.13
2023-02-23T09:25:50.581Z,1.63
2023-02-23T09:28:18.246Z,1.63
2023-02-23T09:30:45.230Z,2.13
2023-02-23T09:33:11.589Z,1.75
2023-02-23T09:35:37.897Z,1.55
2023-02-23T09:38:06.422Z,2.13
2023-02-23T09:40:53.367Z,5.88
2023-02-23T09:43:22.482Z,6.07
2023-02-23T09:45:51.529Z,6.22
2023-02-23T09:48:19.581Z,6.72
2023-02-23T09:50:51.196Z,8.77
2023-02-23T09:53:20.402Z,6.05
2023-02-23T09:55:47.652Z,5.80
2023-02-23T09:58:20.931Z,4.80
2023-02-23T10:00:51.626Z,4.30
2023-02-23T10:03:28.180Z,3.17
2023-02-23T10:06:01.164Z,2.55
2023-02-23T10:08:31.633Z,3.28
2023-02-23T10:11:19.433Z,7.40
2023-02-23T10:13:49.047Z,5.30
2023-02-23T10:16:15.407Z,4.90
2023-02-23T10:18:54.072Z,4.00
2023-02-23T10:21:20.797Z,3.47
2023-02-23T10:24:17.270Z,2.85
2023-02-23T10:26:47.262Z,5.40
2023-02-23T10:29:18.183Z,7.22
2023-02-23T10:31:48.121Z,5.00
2023-02-23T10:34:15.936Z,5.82
2023-02-23T10:36:51.146Z,6.80
2023-02-23T10:39:17.522Z,7.35
2023-02-23T10:41:44.336Z,7.78
2023-02-23T10:44:17.501Z,8.10
2023-02-23T10:46:44.055Z,7.60
2023-02-23T10:49:18.978Z,8.35
2023-02-23T10:51:45.511Z,9.35
2023-02-23T10:54:30.515Z,8.10
2023-02-23T10:56:56.809Z,7.13
2023-02-23T10:59:23.170Z,5.95
2023-02-23T11:02:02.281Z,3.50
2023-02-23T11:04:34.784Z,4.88
2023-02-23T11:07:07.589Z,4.97
2023-02-23T11:09:45.863Z,6.53
2023-02-23T11:12:13.711Z,5.22
2023-02-23T11:14:40.806Z,6.50
2023-02-23T11:17:24.261Z,8.23
2023-02-23T11:19:50.788Z,8.80
2023-02-23T11:22:23.280Z,7.32
2023-02-23T11:24:50.026Z,9.52
2023-02-23T11:27:23.904Z,11.90
2023-02-23T11:29:52.421Z,15.77
2023-02-23T11:32:31.026Z,15.88
2023-02-23T11:35:16.078Z,11.80
2023-02-23T11:37:42.514Z,12.65
2023-02-23T11:40:23.961Z,11.77
2023-02-23T11:42:53.406Z,14.20
2023-02-23T11:45:20.909Z,12.15
2023-02-23T11:47:49.760Z,13.57
2023-02-23T11:50:25.418Z,9.50
2023-02-23T11:52:58.107Z,8.32
2023-02-23T11:55:25.584Z,10.75
2023-02-23T11:57:53.197Z,9.30
2023-02-23T12:00:24.018Z,9.60
2023-02-23T12:02:58.590Z,6.63
2023-02-23T12:05:26.587Z,6.78
2023-02-23T12:08:11.076Z,4.75
2023-02-23T12:10:42.779Z,9.05
2023-02-23T12:13:27.804Z,6.57
2023-02-23T12:16:23.488Z,4.22
2023-02-23T12:18:59.456Z,5.57
2023-02-23T12:21:38.245Z,7.40
2023-02-23T12:24:25.780Z,6.22
2023-02-23T12:26:58.210Z,10.57
2023-02-23T12:29:30.310Z,7.15
2023-02-23T12:31:58.932Z,6.55
2023-02-23T12:34:32.144Z,9.48
2023-02-23T12:37:12.828Z,7.05
2023-02-23T12:39:41.658Z,7.18
2023-02-23T12:42:14.051Z,8.40
2023-02-23T12:44:40.398Z,10.70
2023-02-23T12:47:25.727Z,10.02
2023-02-23T12:50:00.367Z,7.40
2023-02-23T12:52:29.616Z,6.80
2023-02-23T12:54:55.929Z,4.82
2023-02-23T12:57:42.565Z,6.80
2023-02-23T13:00:23.743Z,6.50
2023-02-23T13:02:54.359Z,5.57
2023-02-23T13:05:28.503Z,5.57
2023-02-23T13:07:59.220Z,4.70
2023-02-23T13:10:52.825Z,6.47
2023-02-23T13:13:25.105Z,5.53
2023-02-23T13:16:05.502Z,6.25
2023-02-23T13:18:38.795Z,5.22
2023-02-23T13:21:12.933Z,5.32
2023-02-23T13:23:44.190Z,3.83
2023-02-23T13:26:16.200Z,4.55
2023-02-23T13:28:42.467Z,4.15
2023-02-23T13:31:38.125Z,5.55
2023-02-23T13:34:06.298Z,5.78
2023-02-23T13:36:34.202Z,7.13
2023-02-23T13:39:19.295Z,6.63
2023-02-23T13:41:51.978Z,4.88
2023-02-23T13:44:29.688Z,5.53
2023-02-23T13:46:59.079Z,4.13
2023-02-23T13:49:42.410Z,5.32
2023-02-23T13:52:20.252Z,9.70
2023-02-23T13:54:56.453Z,9.02
2023-02-23T13:57:23.736Z,7.20
2023-02-23T13:59:50.680Z,7.28
2023-02-23T14:02:28.838Z,7.57
2023-02-23T14:05:02.328Z,7.28
2023-02-23T14:07:30.946Z,6.03
2023-02-23T14:09:59.502Z,6.65
2023-02-23T14:12:35.045Z,7.03
2023-02-23T14:15:20.288Z,7.72
2023-02-23T14:18:03.255Z,7.80
2023-02-23T14:20:38.850Z,7.22
2023-02-23T14:23:20.556Z,10.45
2023-02-23T14:25:47.379Z,8.70
2023-02-23T14:28:31.076Z,9.27
2023-02-23T14:31:08.128Z,8.77
2023-02-23T14:33:42.486Z,8.18
2023-02-23T14:36:24.023Z,6.00
2023-02-23T14:38:56.640Z,8.10
2023-02-23T14:41:24.085Z,6.60
2023-02-23T14:43:54.987Z,6.82
2023-02-23T14:46:23.477Z,7.47
2023-02-23T14:49:00.616Z,7.88
2023-02-23T14:51:42.019Z,10.75
2023-02-23T14:54:15.568Z,8.63
2023-02-23T14:56:46.808Z,8.57
2023-02-23T14:59:21.122Z,9.93
2023-02-23T15:01:47.843Z,8.63
2023-02-23T15:04:16.970Z,8.15
2023-02-23T15:06:46.887Z,8.35
2023-02-23T15:09:16.984Z,10.13
2023-02-23T15:11:45.684Z,12.82
2023-02-23T15:14:26.937Z,10.48
2023-02-23T15:19:31.726Z,10.95
2023-02-23T15:21:59.427Z,9.98
2023-02-23T15:24:27.819Z,12.90
2023-02-23T15:26:55.343Z,12.82
2023-02-23T15:29:26.100Z,10.20
2023-02-23T15:31:55.388Z,10.20
2023-02-23T15:34:26.423Z,14.98
2023-02-23T15:37:23.749Z,14.07
2023-02-23T15:39:53.310Z,14.88
2023-02-23T15:42:24.549Z,14.55
2023-02-23T15:44:59.894Z,15.98
2023-02-23T15:47:28.747Z,17.15
2023-02-23T15:50:05.683Z,13.43
2023-02-23T15:52:35.068Z,13.45
2023-02-23T15:55:04.897Z,15.48
2023-02-23T15:57:32.750Z,21.70
2023-02-23T16:00:00.549Z,16.73
2023-02-23T16:02:27.073Z,10.68
2023-02-23T16:04:53.965Z,12.35
2023-02-23T16:07:23.134Z,12.57
2023-02-23T16:09:52.728Z,11.73
2023-02-23T16:12:23.755Z,11.15
2023-02-23T16:14:55.134Z,14.98
2023-02-23T16:17:25.468Z,14.63
2023-02-23T16:19:52.592Z,11.07
2023-02-23T16:22:21.800Z,9.75
2023-02-23T16:24:56.642Z,9.45
2023-02-23T16:27:24.435Z,9.20
2023-02-23T16:29:56.022Z,6.65
2023-02-23T16:32:25.360Z,7.50
2023-02-23T16:34:56.223Z,6.95
2023-02-23T16:37:25.253Z,5.55
2023-02-23T16:39:52.257Z,5.05
2023-02-23T16:42:30.294Z,7.57
2023-02-23T16:44:57.153Z,6.22
2023-02-23T16:47:23.477Z,4.82
2023-02-23T16:49:52.956Z,6.18
2023-02-23T16:52:22.498Z,5.90
2023-02-23T16:54:53.263Z,5.90
2023-02-23T16:57:23.660Z,5.40
2023-02-23T16:59:50.831Z,4.30
2023-02-23T17:02:18.461Z,8.18
2023-02-23T17:04:49.028Z,8.10
2023-02-23T17:07:16.364Z,6.28
2023-02-23T17:09:43.147Z,9.02
2023-02-23T17:12:10.782Z,11.07
2023-02-23T17:14:37.444Z,8.32
2023-02-23T17:17:03.771Z,10.65
2023-02-23T17:19:30.240Z,11.57
2023-02-23T17:21:56.621Z,10.15
2023-02-23T17:24:26.015Z,13.85
2023-02-23T17:26:52.886Z,13.75
2023-02-23T17:29:19.301Z,12.95
2023-02-23T17:31:45.905Z,13.93
2023-02-23T17:34:12.583Z,10.55
2023-02-23T17:36:38.942Z,11.10
2023-02-23T17:39:06.471Z,9.82
2023-02-23T17:41:34.280Z,8.95
2023-02-23T17:44:02.674Z,7.28
2023-02-23T17:46:28.976Z,8.20
2023-02-23T17:48:56.393Z,9.82
2023-02-23T17:51:23.214Z,19.50
2023-02-23T17:53:49.725Z,18.63
2023-02-23T17:56:17.737Z,18.92
2023-02-23T17:58:45.689Z,12.95
2023-02-23T18:01:12.101Z,11.70
2023-02-23T18:03:38.638Z,7.90
2023-02-23T18:06:06.492Z,8.65
2023-02-23T18:08:33.043Z,11.40
2023-02-23T18:10:59.331Z,17.90
2023-02-23T18:13:26.918Z,14.73
2023-02-23T18:15:54.982Z,14.07
2023-02-23T18:18:22.581Z,12.95
2023-02-23T18:20:54.023Z,14.68
2023-02-23T18:23:21.047Z,15.45
2023-02-23T18:25:47.883Z,13.82
2023-02-23T18:28:15.165Z,12.20
2023-02-23T18:30:42.056Z,12.32
2023-02-23T18:33:09.125Z,14.55
2023-02-23T18:35:40.071Z,12.88
2023-02-23T18:38:09.629Z,11.02
2023-02-23T18:40:36.849Z,14.85
2023-02-23T18:43:03.677Z,13.63
2023-02-23T18:45:30.215Z,15.73
2023-02-23T18:47:56.712Z,15.88
2023-02-23T18:50:26.347Z,17.05
2023-02-23T18:52:54.233Z,18.58
2023-02-23T18:55:22.234Z,13.20
2023-02-23T18:57:52.840Z,14.18
2023-02-23T19:00:19.824Z,19.00
2023-02-23T19:02:49.078Z,16.30
2023-02-23T19:05:16.268Z,13.93
2023-02-23T19:07:42.658Z,14.88
2023-02-23T19:10:12.188Z,15.95
2023-02-23T19:12:39.001Z,15.68
2023-02-23T19:15:07.160Z,14.40
2023-02-23T19:17:35.750Z,9.95
2023-02-23T19:20:02.183Z,10.20
2023-02-23T19:22:29.118Z,15.57
2023-02-23T19:24:55.777Z,9.43
2023-02-23T19:27:22.449Z,12.85
2023-02-23T19:29:48.858Z,9.35
2023-02-23T19:32:18.252Z,9.80
2023-02-23T19:34:46.413Z,12.20
2023-02-23T19:37:12.820Z,12.07
2023-02-23T19:39:39.512Z,14.25
2023-02-23T19:42:05.960Z,16.88
2023-02-23T19:44:32.337Z,12.00
2023-02-23T19:46:58.751Z,10.18
2023-02-23T19:49:25.724Z,14.77
2023-02-23T19:51:53.181Z,15.38
2023-02-23T19:54:20.530Z,15.77
2023-02-23T19:56:47.133Z,11.27
2023-02-23T19:59:13.706Z,11.77
2023-02-23T20:01:40.131Z,16.10
2023-02-23T20:04:08.252Z,16.13
2023-02-23T20:06:38.484Z,18.55
2023-02-23T20:09:05.392Z,18.40
2023-02-23T20:11:32.874Z,14.70
2023-02-23T20:14:00.460Z,14.68
2023-02-23T20:16:29.496Z,18.25
2023-02-23T20:18:59.176Z,18.35
2023-02-23T20:21:26.771Z,17.23
2023-02-23T20:23:54.066Z,15.95
2023-02-23T20:26:22.706Z,12.63
2023-02-23T20:28:51.971Z,10.07
2023-02-23T20:31:21.006Z,11.43
2023-02-23T20:33:50.432Z,8.07
2023-02-23T20:36:17.500Z,13.20
2023-02-23T20:38:43.888Z,13.70
2023-02-23T20:41:10.623Z,9.82
2023-02-23T20:43:37.543Z,14.38
2023-02-23T20:46:04.217Z,19.38
2023-02-23T20:48:31.941Z,16.15
2023-02-23T20:50:58.561Z,12.65
2023-02-23T20:53:25.527Z,11.25
2023-02-23T20:55:52.565Z,18.23
2023-02-23T20:58:25.528Z,12.52
2023-02-23T21:00:54.681Z,14.20
2023-02-23T21:03:21.673Z,15.95
2023-02-23T21:05:51.589Z,12.30
2023-02-23T21:08:18.333Z,9.07
2023-02-23T21:10:44.865Z,12.25
2023-02-23T21:13:11.356Z,9.80
2023-02-23T21:15:38.095Z,11.43
2023-02-23T21:18:04.915Z,10.55
2023-02-23T21:20:31.399Z,14.07
2023-02-23T21:22:57.786Z,18.92
2023-02-23T21:25:25.180Z,14.65
2023-02-23T21:27:51.826Z,15.68
2023-02-23T21:30:21.817Z,18.75
2023-02-23T21:32:48.909Z,17.77
2023-02-23T21:35:15.507Z,17.10
2023-02-23T21:37:42.666Z,12.68
2023-02-23T21:40:11.899Z,18.42
2023-02-23T21:42:38.945Z,16.08
2023-02-23T21:45:05.834Z,17.63
2023-02-23T21:47:34.094Z,15.10
2023-02-23T21:50:00.464Z,21.65
2023-02-23T21:52:26.953Z,21.67
2023-02-23T21:54:53.341Z,20.13
2023-02-23T21:57:22.646Z,20.58
2023-02-23T21:59:49.452Z,18.95
2023-02-23T22:02:15.828Z,23.83
2023-02-23T22:04:42.210Z,20.73
2023-02-23T22:07:08.747Z,22.25
2023-02-23T22:09:35.300Z,22.00
2023-02-23T22:12:01.610Z,24.77
2023-02-23T22:14:28.019Z,17.92
2023-02-23T22:16:54.543Z,23.63
2023-02-23T22:19:21.228Z,25.98
2023-02-23T22:21:48.440Z,19.65
2023-02-23T22:24:15.283Z,25.80
2023-02-23T22:26:46.709Z,20.27
2023-02-23T22:29:13.021Z,19.77
2023-02-23T22:31:39.837Z,19.33
2023-02-23T22:34:07.284Z,19.48
2023-02-23T22:36:34.278Z,18.80
2023-02-23T22:39:00.883Z,25.75
2023-02-23T22:41:30.530Z,31.50
2023-02-23T22:43:57.230Z,21.15
2023-02-23T22:46:23.906Z,27.08
2023-02-23T22:48:50.386Z,24.30
2023-02-23T22:51:17.884Z,16.80
2023-02-23T22:53:44.572Z,22.45
2023-02-23T22:56:10.986Z,22.35
2023-02-23T22:58:37.596Z,18.95
2023-02-23T23:01:05.731Z,31.05
2023-02-23T23:03:36.767Z,19.73
2023-02-23T23:06:04.625Z,16.38
2023-02-23T23:08:39.880Z,21.15
2023-02-23T23:11:10.434Z,14.18
2023-02-23T23:13:44.546Z,16.90
2023-02-23T23:16:29.131Z,19.42
2023-02-23T23:19:02.878Z,14.40
2023-02-23T23:23:57.254Z,11.98
2023-02-23T23:26:25.639Z,17.05
2023-02-23T23:28:53.044Z,14.45
2023-02-23T23:31:22.635Z,9.98
2023-02-23T23:33:50.053Z,14.15
2023-02-23T23:36:17.667Z,9.35
2023-02-23T23:38:44.169Z,7.28
2023-02-23T23:41:13.580Z,5.47
2023-02-23T23:43:46.314Z,4.95
2023-02-23T23:46:18.307Z,3.83
2023-02-23T23:51:11.472Z,2.97
2023-02-23T23:53:37.826Z,6.15
2023-02-23T23:56:05.592Z,4.55
2023-02-23T23:58:32.246Z,5.57
